sensor_id;sensor_type;location;lat;lon;timestamp;temperature;humidity
46676;DHT22;32412;51.478;5.694;2023-08-31T00:02:09;11.90;99.90
46676;DHT22;32412;51.478;5.694;2023-08-31T00:04:35;11.90;99.90
46676;DHT22;32412;51.478;5.694;2023-08-31T00:07:01;11.80;99.90
46676;DHT22;32412;51.478;5.694;2023-08-31T00:09:27;11.80;99.90
46676;DHT22;32412;51.478;5.694;2023-08-31T00:11:52;11.70;99.90
46676;DHT22;32412;51.478;5.694;2023-08-31T00:14:18;11.70;99.90
46676;DHT22;32412;51.478;5.694;2023-08-31T00:16:44;11.70;99.90
46676;DHT22;32412;51.478;5.694;2023-08-31T00:19:13;11.70;99.90
46676;DHT22;32412;51.478;5.694;2023-08-31T00:21:40;11.70;99.90
46676;DHT22;32412;51.478;5.694;2023-08-31T00:24:05;11.70;99.90
46676;DHT22;32412;51.478;5.694;2023-08-31T00:26:32;11.70;99.90
46676;DHT22;32412;51.478;5.694;2023-08-31T00:28:58;11.70;99.90
46676;DHT22;32412;51.478;5.694;2023-08-31T00:31:24;11.60;99.90
46676;DHT22;32412;51.478;5.694;2023-08-31T00:33:50;11.50;99.90
46676;DHT22;32412;51.478;5.694;2023-08-31T00:36:16;11.50;99.90
46676;DHT22;32412;51.478;5.694;2023-08-31T00:38:43;11.50;99.90
46676;DHT22;32412;51.478;5.694;2023-08-31T00:41:10;11.50;99.90
46676;DHT22;32412;51.478;5.694;2023-08-31T00:43:35;11.40;99.90
46676;DHT22;32412;51.478;5.694;2023-08-31T00:46:02;11.40;99.90
46676;DHT22;32412;51.478;5.694;2023-08-31T00:48:27;11.40;99.90
46676;DHT22;32412;51.478;5.694;2023-08-31T00:50:53;11.40;99.90
46676;DHT22;32412;51.478;5.694;2023-08-31T00:53:19;11.30;99.90
46676;DHT22;32412;51.478;5.694;2023-08-31T00:55:45;11.30;99.90
46676;DHT22;32412;51.478;5.694;2023-08-31T00:58:11;11.30;99.90
46676;DHT22;32412;51.478;5.694;2023-08-31T01:03:17;11.30;99.90
46676;DHT22;32412;51.478;5.694;2023-08-31T01:08:23;11.20;99.90
46676;DHT22;32412;51.478;5.694;2023-08-31T01:11:19;11.20;99.90
46676;DHT22;32412;51.478;5.694;2023-08-31T01:13:57;11.20;99.90
46676;DHT22;32412;51.478;5.694;2023-08-31T01:16:25;11.10;99.90
46676;DHT22;32412;51.478;5.694;2023-08-31T01:18:52;11.20;99.90
46676;DHT22;32412;51.478;5.694;2023-08-31T01:21:27;11.20;99.90
46676;DHT22;32412;51.478;5.694;2023-08-31T01:23:56;11.20;99.90
46676;DHT22;32412;51.478;5.694;2023-08-31T01:26:24;11.20;99.90
46676;DHT22;32412;51.478;5.694;2023-08-31T01:28:51;11.20;99.90
46676;DHT22;32412;51.478;5.694;2023-08-31T01:31:16;11.10;99.90
46676;DHT22;32412;51.478;5.694;2023-08-31T01:33:42;11.10;99.90
46676;DHT22;32412;51.478;5.694;2023-08-31T01:36:18;11.10;99.90
46676;DHT22;32412;51.478;5.694;2023-08-31T01:38:50;11.00;99.90
46676;DHT22;32412;51.478;5.694;2023-08-31T01:41:19;11.00;99.90
46676;DHT22;32412;51.478;5.694;2023-08-31T01:43:46;11.00;99.90
46676;DHT22;32412;51.478;5.694;2023-08-31T01:46:13;11.00;99.90
46676;DHT22;32412;51.478;5.694;2023-08-31T01:48:39;11.00;99.90
46676;DHT22;32412;51.478;5.694;2023-08-31T01:51:09;10.90;99.90
46676;DHT22;32412;51.478;5.694;2023-08-31T01:53:35;11.00;99.90
46676;DHT22;32412;51.478;5.694;2023-08-31T01:56:02;10.90;99.90
46676;DHT22;32412;51.478;5.694;2023-08-31T01:58:27;11.00;99.90
46676;DHT22;32412;51.478;5.694;2023-08-31T02:00:53;11.00;99.90
46676;DHT22;32412;51.478;5.694;2023-08-31T02:03:19;11.00;99.90
46676;DHT22;32412;51.478;5.694;2023-08-31T02:05:44;11.00;99.90
46676;DHT22;32412;51.478;5.694;2023-08-31T02:08:10;11.00;99.90
46676;DHT22;32412;51.478;5.694;2023-08-31T02:10:35;11.00;99.90
46676;DHT22;32412;51.478;5.694;2023-08-31T02:13:01;11.00;99.90
46676;DHT22;32412;51.478;5.694;2023-08-31T02:15:27;11.00;99.90
46676;DHT22;32412;51.478;5.694;2023-08-31T02:17:53;11.00;99.90
46676;DHT22;32412;51.478;5.694;2023-08-31T02:20:19;11.00;99.90
46676;DHT22;32412;51.478;5.694;2023-08-31T02:22:46;11.00;99.90
46676;DHT22;32412;51.478;5.694;2023-08-31T02:25:11;11.10;99.90
46676;DHT22;32412;51.478;5.694;2023-08-31T02:27:39;11.10;99.90
46676;DHT22;32412;51.478;5.694;2023-08-31T02:30:05;11.10;99.90
46676;DHT22;32412;51.478;5.694;2023-08-31T02:32:31;11.20;99.90
46676;DHT22;32412;51.478;5.694;2023-08-31T02:34:57;11.20;99.90
46676;DHT22;32412;51.478;5.694;2023-08-31T02:37:22;11.20;99.90
46676;DHT22;32412;51.478;5.694;2023-08-31T02:39:48;11.30;99.90
46676;DHT22;32412;51.478;5.694;2023-08-31T02:42:14;11.30;99.90
46676;DHT22;32412;51.478;5.694;2023-08-31T02:44:40;11.40;99.90
46676;DHT22;32412;51.478;5.694;2023-08-31T02:47:05;11.40;99.90
46676;DHT22;32412;51.478;5.694;2023-08-31T02:49:31;11.40;99.90
46676;DHT22;32412;51.478;5.694;2023-08-31T02:51:57;11.40;99.90
46676;DHT22;32412;51.478;5.694;2023-08-31T02:54:22;11.40;99.90
46676;DHT22;32412;51.478;5.694;2023-08-31T02:56:48;11.50;99.90
46676;DHT22;32412;51.478;5.694;2023-08-31T02:59:14;11.50;99.90
46676;DHT22;32412;51.478;5.694;2023-08-31T03:01:39;11.50;99.90
46676;DHT22;32412;51.478;5.694;2023-08-31T03:04:05;11.50;99.90
46676;DHT22;32412;51.478;5.694;2023-08-31T03:06:32;11.50;99.90
46676;DHT22;32412;51.478;5.694;2023-08-31T03:08:58;11.50;99.90
46676;DHT22;32412;51.478;5.694;2023-08-31T03:11:23;11.40;99.90
46676;DHT22;32412;51.478;5.694;2023-08-31T03:13:49;11.30;99.90
46676;DHT22;32412;51.478;5.694;2023-08-31T03:16:15;11.30;99.90
46676;DHT22;32412;51.478;5.694;2023-08-31T03:18:40;11.30;99.90
46676;DHT22;32412;51.478;5.694;2023-08-31T03:21:06;11.30;99.90
46676;DHT22;32412;51.478;5.694;2023-08-31T03:23:31;11.30;99.90
46676;DHT22;32412;51.478;5.694;2023-08-31T03:25:57;11.20;99.90
46676;DHT22;32412;51.478;5.694;2023-08-31T03:28:23;11.20;99.90
46676;DHT22;32412;51.478;5.694;2023-08-31T03:30:57;11.10;99.90
46676;DHT22;32412;51.478;5.694;2023-08-31T03:33:23;11.10;99.90
46676;DHT22;32412;51.478;5.694;2023-08-31T03:35:49;11.10;99.90
46676;DHT22;32412;51.478;5.694;2023-08-31T03:38:14;11.10;99.90
46676;DHT22;32412;51.478;5.694;2023-08-31T03:40:40;11.10;99.90
46676;DHT22;32412;51.478;5.694;2023-08-31T03:43:06;11.10;99.90
46676;DHT22;32412;51.478;5.694;2023-08-31T03:45:32;11.10;99.90
46676;DHT22;32412;51.478;5.694;2023-08-31T03:47:57;11.10;99.90
46676;DHT22;32412;51.478;5.694;2023-08-31T03:50:24;11.10;99.90
46676;DHT22;32412;51.478;5.694;2023-08-31T03:52:50;11.10;99.90
46676;DHT22;32412;51.478;5.694;2023-08-31T03:55:15;11.10;99.90
46676;DHT22;32412;51.478;5.694;2023-08-31T03:57:41;11.10;99.90
46676;DHT22;32412;51.478;5.694;2023-08-31T04:00:07;11.00;99.90
46676;DHT22;32412;51.478;5.694;2023-08-31T04:02:34;11.00;99.90
46676;DHT22;32412;51.478;5.694;2023-08-31T04:05:01;11.00;99.90
46676;DHT22;32412;51.478;5.694;2023-08-31T04:07:26;11.00;99.90
46676;DHT22;32412;51.478;5.694;2023-08-31T04:09:52;11.00;99.90
46676;DHT22;32412;51.478;5.694;2023-08-31T04:12:18;11.00;99.90
46676;DHT22;32412;51.478;5.694;2023-08-31T04:14:43;10.90;99.90
46676;DHT22;32412;51.478;5.694;2023-08-31T04:17:09;10.90;99.90
46676;DHT22;32412;51.478;5.694;2023-08-31T04:19:34;10.90;99.90
46676;DHT22;32412;51.478;5.694;2023-08-31T04:22:03;10.90;99.90
46676;DHT22;32412;51.478;5.694;2023-08-31T04:24:30;10.90;99.90
46676;DHT22;32412;51.478;5.694;2023-08-31T04:26:55;10.80;99.90
46676;DHT22;32412;51.478;5.694;2023-08-31T04:29:21;10.80;99.90
46676;DHT22;32412;51.478;5.694;2023-08-31T04:31:46;10.80;99.90
46676;DHT22;32412;51.478;5.694;2023-08-31T04:34:12;10.80;99.90
46676;DHT22;32412;51.478;5.694;2023-08-31T04:36:38;10.80;99.90
46676;DHT22;32412;51.478;5.694;2023-08-31T04:39:03;10.80;99.90
46676;DHT22;32412;51.478;5.694;2023-08-31T04:41:30;10.80;99.90
46676;DHT22;32412;51.478;5.694;2023-08-31T04:43:56;10.80;99.90
46676;DHT22;32412;51.478;5.694;2023-08-31T04:46:21;10.80;99.90
46676;DHT22;32412;51.478;5.694;2023-08-31T04:48:47;10.70;99.90
46676;DHT22;32412;51.478;5.694;2023-08-31T04:51:29;10.80;99.90
46676;DHT22;32412;51.478;5.694;2023-08-31T04:53:55;10.70;99.90
46676;DHT22;32412;51.478;5.694;2023-08-31T04:56:21;10.70;99.90
46676;DHT22;32412;51.478;5.694;2023-08-31T04:58:46;10.70;99.90
46676;DHT22;32412;51.478;5.694;2023-08-31T05:01:12;10.80;99.90
46676;DHT22;32412;51.478;5.694;2023-08-31T05:03:37;10.70;99.90
46676;DHT22;32412;51.478;5.694;2023-08-31T05:06:03;10.80;99.90
46676;DHT22;32412;51.478;5.694;2023-08-31T05:08:30;10.80;99.90
46676;DHT22;32412;51.478;5.694;2023-08-31T05:10:56;10.80;99.90
46676;DHT22;32412;51.478;5.694;2023-08-31T05:13:21;10.80;99.90
46676;DHT22;32412;51.478;5.694;2023-08-31T05:15:47;10.80;99.90
46676;DHT22;32412;51.478;5.694;2023-08-31T05:18:13;10.80;99.90
46676;DHT22;32412;51.478;5.694;2023-08-31T05:20:38;10.80;99.90
46676;DHT22;32412;51.478;5.694;2023-08-31T05:23:04;10.80;99.90
46676;DHT22;32412;51.478;5.694;2023-08-31T05:25:30;10.80;99.90
46676;DHT22;32412;51.478;5.694;2023-08-31T05:27:55;10.80;99.90
46676;DHT22;32412;51.478;5.694;2023-08-31T05:30:21;10.90;99.90
46676;DHT22;32412;51.478;5.694;2023-08-31T05:32:46;11.00;99.90
46676;DHT22;32412;51.478;5.694;2023-08-31T05:35:12;11.00;99.90
46676;DHT22;32412;51.478;5.694;2023-08-31T05:37:38;11.10;99.90
46676;DHT22;32412;51.478;5.694;2023-08-31T05:40:04;11.20;99.90
46676;DHT22;32412;51.478;5.694;2023-08-31T05:42:35;11.30;99.90
46676;DHT22;32412;51.478;5.694;2023-08-31T05:45:01;11.30;99.90
46676;DHT22;32412;51.478;5.694;2023-08-31T05:47:27;11.50;99.90
46676;DHT22;32412;51.478;5.694;2023-08-31T05:49:52;11.50;99.90
46676;DHT22;32412;51.478;5.694;2023-08-31T05:52:18;11.50;99.90
46676;DHT22;32412;51.478;5.694;2023-08-31T05:54:43;11.50;99.90
46676;DHT22;32412;51.478;5.694;2023-08-31T05:57:09;11.40;99.90
46676;DHT22;32412;51.478;5.694;2023-08-31T05:59:35;11.40;99.90
46676;DHT22;32412;51.478;5.694;2023-08-31T06:02:00;11.40;99.90
46676;DHT22;32412;51.478;5.694;2023-08-31T06:04:26;11.40;99.90
46676;DHT22;32412;51.478;5.694;2023-08-31T06:06:52;11.40;99.90
46676;DHT22;32412;51.478;5.694;2023-08-31T06:09:19;11.50;99.90
46676;DHT22;32412;51.478;5.694;2023-08-31T06:11:45;11.60;99.90
46676;DHT22;32412;51.478;5.694;2023-08-31T06:14:11;11.60;99.90
46676;DHT22;32412;51.478;5.694;2023-08-31T06:16:37;11.80;99.90
46676;DHT22;32412;51.478;5.694;2023-08-31T06:19:03;11.90;99.90
46676;DHT22;32412;51.478;5.694;2023-08-31T06:21:29;11.90;99.90
46676;DHT22;32412;51.478;5.694;2023-08-31T06:23:54;12.10;99.90
46676;DHT22;32412;51.478;5.694;2023-08-31T06:26:20;12.20;99.90
46676;DHT22;32412;51.478;5.694;2023-08-31T06:28:45;12.20;99.90
46676;DHT22;32412;51.478;5.694;2023-08-31T06:31:11;12.30;99.90
46676;DHT22;32412;51.478;5.694;2023-08-31T06:33:37;12.50;99.90
46676;DHT22;32412;51.478;5.694;2023-08-31T06:36:02;12.60;99.90
46676;DHT22;32412;51.478;5.694;2023-08-31T06:38:28;12.70;99.90
46676;DHT22;32412;51.478;5.694;2023-08-31T06:40:54;12.80;99.90
46676;DHT22;32412;51.478;5.694;2023-08-31T06:43:25;12.90;99.90
46676;DHT22;32412;51.478;5.694;2023-08-31T06:45:52;13.00;99.90
46676;DHT22;32412;51.478;5.694;2023-08-31T06:48:18;13.10;99.90
46676;DHT22;32412;51.478;5.694;2023-08-31T06:50:44;13.20;99.90
46676;DHT22;32412;51.478;5.694;2023-08-31T06:53:09;13.30;99.90
46676;DHT22;32412;51.478;5.694;2023-08-31T06:55:35;13.40;99.90
46676;DHT22;32412;51.478;5.694;2023-08-31T06:58:01;13.50;99.90
46676;DHT22;32412;51.478;5.694;2023-08-31T07:00:29;13.60;99.90
46676;DHT22;32412;51.478;5.694;2023-08-31T07:02:55;13.70;99.90
46676;DHT22;32412;51.478;5.694;2023-08-31T07:05:25;13.80;99.90
46676;DHT22;32412;51.478;5.694;2023-08-31T07:07:54;13.90;99.90
46676;DHT22;32412;51.478;5.694;2023-08-31T07:10:21;14.10;99.90
46676;DHT22;32412;51.478;5.694;2023-08-31T07:12:47;14.20;99.90
46676;DHT22;32412;51.478;5.694;2023-08-31T07:15:13;14.30;99.90
46676;DHT22;32412;51.478;5.694;2023-08-31T07:17:39;14.40;99.90
46676;DHT22;32412;51.478;5.694;2023-08-31T07:20:05;14.50;99.90
46676;DHT22;32412;51.478;5.694;2023-08-31T07:22:34;14.60;99.90
46676;DHT22;32412;51.478;5.694;2023-08-31T07:25:00;14.70;99.90
46676;DHT22;32412;51.478;5.694;2023-08-31T07:27:26;14.80;99.90
46676;DHT22;32412;51.478;5.694;2023-08-31T07:29:54;15.00;99.90
46676;DHT22;32412;51.478;5.694;2023-08-31T07:32:20;15.10;99.90
46676;DHT22;32412;51.478;5.694;2023-08-31T07:34:45;15.30;99.90
46676;DHT22;32412;51.478;5.694;2023-08-31T07:37:11;15.40;99.90
46676;DHT22;32412;51.478;5.694;2023-08-31T07:39:37;15.50;99.90
46676;DHT22;32412;51.478;5.694;2023-08-31T07:42:02;15.60;99.90
46676;DHT22;32412;51.478;5.694;2023-08-31T07:44:28;15.70;99.90
46676;DHT22;32412;51.478;5.694;2023-08-31T07:46:53;15.80;99.90
46676;DHT22;32412;51.478;5.694;2023-08-31T07:49:19;15.70;99.90
46676;DHT22;32412;51.478;5.694;2023-08-31T07:51:46;15.80;99.90
46676;DHT22;32412;51.478;5.694;2023-08-31T07:54:19;15.80;99.90
46676;DHT22;32412;51.478;5.694;2023-08-31T07:56:45;15.90;99.90
46676;DHT22;32412;51.478;5.694;2023-08-31T07:59:10;16.00;99.90
46676;DHT22;32412;51.478;5.694;2023-08-31T08:01:36;16.20;99.90
46676;DHT22;32412;51.478;5.694;2023-08-31T08:04:02;16.30;99.90
46676;DHT22;32412;51.478;5.694;2023-08-31T08:06:28;16.50;99.90
46676;DHT22;32412;51.478;5.694;2023-08-31T08:08:53;16.70;99.90
46676;DHT22;32412;51.478;5.694;2023-08-31T08:11:19;16.80;99.90
46676;DHT22;32412;51.478;5.694;2023-08-31T08:13:45;16.90;99.90
46676;DHT22;32412;51.478;5.694;2023-08-31T08:16:10;17.00;99.90
46676;DHT22;32412;51.478;5.694;2023-08-31T08:18:36;17.10;99.90
46676;DHT22;32412;51.478;5.694;2023-08-31T08:21:02;17.20;99.90
46676;DHT22;32412;51.478;5.694;2023-08-31T08:23:28;17.30;99.90
46676;DHT22;32412;51.478;5.694;2023-08-31T08:25:54;17.40;99.90
46676;DHT22;32412;51.478;5.694;2023-08-31T08:28:20;17.40;99.90
46676;DHT22;32412;51.478;5.694;2023-08-31T08:30:45;17.50;99.90
46676;DHT22;32412;51.478;5.694;2023-08-31T08:33:11;17.50;99.90
46676;DHT22;32412;51.478;5.694;2023-08-31T08:35:38;17.60;99.90
46676;DHT22;32412;51.478;5.694;2023-08-31T08:38:04;17.70;99.90
46676;DHT22;32412;51.478;5.694;2023-08-31T08:40:31;17.90;99.90
46676;DHT22;32412;51.478;5.694;2023-08-31T08:43:00;17.80;99.90
46676;DHT22;32412;51.478;5.694;2023-08-31T08:45:30;17.90;99.90
46676;DHT22;32412;51.478;5.694;2023-08-31T08:47:57;17.90;99.90
46676;DHT22;32412;51.478;5.694;2023-08-31T08:50:23;17.90;99.90
46676;DHT22;32412;51.478;5.694;2023-08-31T08:52:49;17.90;99.90
46676;DHT22;32412;51.478;5.694;2023-08-31T08:55:16;18.00;99.90
46676;DHT22;32412;51.478;5.694;2023-08-31T08:57:41;18.10;99.90
46676;DHT22;32412;51.478;5.694;2023-08-31T09:00:07;18.10;99.90
46676;DHT22;32412;51.478;5.694;2023-08-31T09:02:33;18.20;99.90
46676;DHT22;32412;51.478;5.694;2023-08-31T09:04:59;18.30;99.90
46676;DHT22;32412;51.478;5.694;2023-08-31T09:07:29;18.40;99.90
46676;DHT22;32412;51.478;5.694;2023-08-31T09:09:55;18.60;99.90
46676;DHT22;32412;51.478;5.694;2023-08-31T09:12:22;18.70;99.90
46676;DHT22;32412;51.478;5.694;2023-08-31T09:14:59;18.90;99.90
46676;DHT22;32412;51.478;5.694;2023-08-31T09:17:25;19.00;99.90
46676;DHT22;32412;51.478;5.694;2023-08-31T09:20:02;19.10;99.90
46676;DHT22;32412;51.478;5.694;2023-08-31T09:22:32;19.20;99.90
46676;DHT22;32412;51.478;5.694;2023-08-31T09:24:59;19.30;99.90
46676;DHT22;32412;51.478;5.694;2023-08-31T09:27:24;19.70;99.90
46676;DHT22;32412;51.478;5.694;2023-08-31T09:29:50;19.70;99.90
46676;DHT22;32412;51.478;5.694;2023-08-31T09:32:19;20.10;99.90
46676;DHT22;32412;51.478;5.694;2023-08-31T09:34:45;20.40;99.90
46676;DHT22;32412;51.478;5.694;2023-08-31T09:37:11;20.50;99.90
46676;DHT22;32412;51.478;5.694;2023-08-31T09:39:40;20.80;99.90
46676;DHT22;32412;51.478;5.694;2023-08-31T09:42:06;21.10;99.90
46676;DHT22;32412;51.478;5.694;2023-08-31T09:44:32;21.30;99.90
46676;DHT22;32412;51.478;5.694;2023-08-31T09:46:58;21.90;99.90
46676;DHT22;32412;51.478;5.694;2023-08-31T09:49:24;22.40;99.90
46676;DHT22;32412;51.478;5.694;2023-08-31T09:51:51;22.80;99.90
46676;DHT22;32412;51.478;5.694;2023-08-31T09:54:19;23.00;99.90
46676;DHT22;32412;51.478;5.694;2023-08-31T09:56:47;22.90;99.90
46676;DHT22;32412;51.478;5.694;2023-08-31T09:59:15;23.00;99.90
46676;DHT22;32412;51.478;5.694;2023-08-31T10:01:43;22.10;99.90
46676;DHT22;32412;51.478;5.694;2023-08-31T10:04:09;21.50;99.90
46676;DHT22;32412;51.478;5.694;2023-08-31T10:06:39;21.10;99.90
46676;DHT22;32412;51.478;5.694;2023-08-31T10:09:05;21.90;99.90
46676;DHT22;32412;51.478;5.694;2023-08-31T10:11:31;21.80;99.90
46676;DHT22;32412;51.478;5.694;2023-08-31T10:13:58;21.00;99.90
46676;DHT22;32412;51.478;5.694;2023-08-31T10:16:27;21.30;99.90
46676;DHT22;32412;51.478;5.694;2023-08-31T10:18:55;22.90;99.90
46676;DHT22;32412;51.478;5.694;2023-08-31T10:21:21;24.10;99.90
46676;DHT22;32412;51.478;5.694;2023-08-31T10:23:48;24.70;99.90
46676;DHT22;32412;51.478;5.694;2023-08-31T10:26:27;23.70;99.90
46676;DHT22;32412;51.478;5.694;2023-08-31T10:28:53;22.60;99.90
46676;DHT22;32412;51.478;5.694;2023-08-31T10:31:20;21.30;99.90
46676;DHT22;32412;51.478;5.694;2023-08-31T10:33:59;20.80;99.90
46676;DHT22;32412;51.478;5.694;2023-08-31T10:36:39;20.50;99.90
46676;DHT22;32412;51.478;5.694;2023-08-31T10:39:14;20.20;99.90
46676;DHT22;32412;51.478;5.694;2023-08-31T10:41:41;20.40;99.90
46676;DHT22;32412;51.478;5.694;2023-08-31T10:44:27;21.00;99.90
46676;DHT22;32412;51.478;5.694;2023-08-31T10:46:54;22.60;99.90
46676;DHT22;32412;51.478;5.694;2023-08-31T10:49:21;24.00;99.90
46676;DHT22;32412;51.478;5.694;2023-08-31T10:51:48;24.30;99.90
46676;DHT22;32412;51.478;5.694;2023-08-31T10:54:25;24.20;99.90
46676;DHT22;32412;51.478;5.694;2023-08-31T10:59:23;24.30;99.90
46676;DHT22;32412;51.478;5.694;2023-08-31T11:01:57;25.10;99.50
46676;DHT22;32412;51.478;5.694;2023-08-31T11:04:25;25.60;99.40
46676;DHT22;32412;51.478;5.694;2023-08-31T11:07:16;26.80;99.50
46676;DHT22;32412;51.478;5.694;2023-08-31T11:09:43;27.30;97.10
46676;DHT22;32412;51.478;5.694;2023-08-31T11:12:10;27.10;96.00
46676;DHT22;32412;51.478;5.694;2023-08-31T11:14:35;26.90;96.80
46676;DHT22;32412;51.478;5.694;2023-08-31T11:17:01;27.20;96.40
46676;DHT22;32412;51.478;5.694;2023-08-31T11:19:29;26.60;95.80
46676;DHT22;32412;51.478;5.694;2023-08-31T11:21:55;26.10;96.30
46676;DHT22;32412;51.478;5.694;2023-08-31T11:24:21;26.50;96.70
46676;DHT22;32412;51.478;5.694;2023-08-31T11:26:50;26.40;96.20
46676;DHT22;32412;51.478;5.694;2023-08-31T11:29:16;26.20;95.80
46676;DHT22;32412;51.478;5.694;2023-08-31T11:31:42;26.20;96.30
46676;DHT22;32412;51.478;5.694;2023-08-31T11:34:16;25.60;95.90
46676;DHT22;32412;51.478;5.694;2023-08-31T11:36:42;24.40;98.10
46676;DHT22;32412;51.478;5.694;2023-08-31T11:39:12;24.40;99.10
46676;DHT22;32412;51.478;5.694;2023-08-31T11:41:38;24.60;98.80
46676;DHT22;32412;51.478;5.694;2023-08-31T11:44:11;24.00;99.40
46676;DHT22;32412;51.478;5.694;2023-08-31T11:46:39;23.10;99.50
46676;DHT22;32412;51.478;5.694;2023-08-31T11:49:06;22.40;99.90
46676;DHT22;32412;51.478;5.694;2023-08-31T11:51:33;21.80;99.90
46676;DHT22;32412;51.478;5.694;2023-08-31T11:54:00;21.60;99.90
46676;DHT22;32412;51.478;5.694;2023-08-31T11:56:49;21.50;99.90
46676;DHT22;32412;51.478;5.694;2023-08-31T11:59:18;21.50;99.90
46676;DHT22;32412;51.478;5.694;2023-08-31T12:01:46;21.50;99.90
46676;DHT22;32412;51.478;5.694;2023-08-31T12:04:22;22.00;99.90
46676;DHT22;32412;51.478;5.694;2023-08-31T12:06:50;22.60;99.90
46676;DHT22;32412;51.478;5.694;2023-08-31T12:09:17;22.80;99.90
46676;DHT22;32412;51.478;5.694;2023-08-31T12:11:52;23.40;99.90
46676;DHT22;32412;51.478;5.694;2023-08-31T12:14:22;24.40;99.90
46676;DHT22;32412;51.478;5.694;2023-08-31T12:16:48;25.10;99.50
46676;DHT22;32412;51.478;5.694;2023-08-31T12:19:15;25.90;98.30
46676;DHT22;32412;51.478;5.694;2023-08-31T12:21:43;26.50;98.10
46676;DHT22;32412;51.478;5.694;2023-08-31T12:24:09;25.20;96.40
46676;DHT22;32412;51.478;5.694;2023-08-31T12:26:35;23.90;98.00
46676;DHT22;32412;51.478;5.694;2023-08-31T12:29:01;24.60;98.00
46676;DHT22;32412;51.478;5.694;2023-08-31T12:31:26;24.40;98.30
46676;DHT22;32412;51.478;5.694;2023-08-31T12:33:52;23.60;98.70
46676;DHT22;32412;51.478;5.694;2023-08-31T12:36:18;23.10;99.90
46676;DHT22;32412;51.478;5.694;2023-08-31T12:38:43;22.40;99.90
46676;DHT22;32412;51.478;5.694;2023-08-31T12:41:09;21.70;99.90
46676;DHT22;32412;51.478;5.694;2023-08-31T12:43:35;21.20;99.90
46676;DHT22;32412;51.478;5.694;2023-08-31T12:46:01;20.70;99.90
46676;DHT22;32412;51.478;5.694;2023-08-31T12:48:27;20.50;99.90
46676;DHT22;32412;51.478;5.694;2023-08-31T12:50:52;19.70;99.90
46676;DHT22;32412;51.478;5.694;2023-08-31T12:53:22;18.70;99.90
46676;DHT22;32412;51.478;5.694;2023-08-31T12:55:48;18.10;99.90
46676;DHT22;32412;51.478;5.694;2023-08-31T12:58:15;17.30;99.90
46676;DHT22;32412;51.478;5.694;2023-08-31T13:00:40;16.80;99.90
46676;DHT22;32412;51.478;5.694;2023-08-31T13:03:08;16.50;99.90
46676;DHT22;32412;51.478;5.694;2023-08-31T13:05:34;16.30;99.90
46676;DHT22;32412;51.478;5.694;2023-08-31T13:08:00;16.10;99.90
46676;DHT22;32412;51.478;5.694;2023-08-31T13:10:26;16.00;99.90
46676;DHT22;32412;51.478;5.694;2023-08-31T13:12:52;15.90;99.90
46676;DHT22;32412;51.478;5.694;2023-08-31T13:15:17;15.80;99.90
46676;DHT22;32412;51.478;5.694;2023-08-31T13:17:43;15.70;99.90
46676;DHT22;32412;51.478;5.694;2023-08-31T13:20:09;15.60;99.90
46676;DHT22;32412;51.478;5.694;2023-08-31T13:22:35;15.60;99.90
46676;DHT22;32412;51.478;5.694;2023-08-31T13:25:01;15.50;99.90
46676;DHT22;32412;51.478;5.694;2023-08-31T13:27:26;15.50;99.90
46676;DHT22;32412;51.478;5.694;2023-08-31T13:29:52;15.50;99.90
46676;DHT22;32412;51.478;5.694;2023-08-31T13:32:18;15.60;99.90
46676;DHT22;32412;51.478;5.694;2023-08-31T13:34:44;15.50;99.90
46676;DHT22;32412;51.478;5.694;2023-08-31T13:37:09;15.50;99.90
46676;DHT22;32412;51.478;5.694;2023-08-31T13:39:36;15.50;99.90
46676;DHT22;32412;51.478;5.694;2023-08-31T13:42:02;15.60;99.90
46676;DHT22;32412;51.478;5.694;2023-08-31T13:44:29;15.60;99.90
46676;DHT22;32412;51.478;5.694;2023-08-31T13:46:55;15.60;99.90
46676;DHT22;32412;51.478;5.694;2023-08-31T13:49:20;15.60;99.90
46676;DHT22;32412;51.478;5.694;2023-08-31T13:51:46;15.50;99.90
46676;DHT22;32412;51.478;5.694;2023-08-31T13:54:12;15.40;99.90
46676;DHT22;32412;51.478;5.694;2023-08-31T13:56:37;15.30;99.90
46676;DHT22;32412;51.478;5.694;2023-08-31T13:59:03;15.20;99.90
46676;DHT22;32412;51.478;5.694;2023-08-31T14:01:29;15.20;99.90
46676;DHT22;32412;51.478;5.694;2023-08-31T14:03:55;15.20;99.90
46676;DHT22;32412;51.478;5.694;2023-08-31T14:06:21;15.30;99.90
46676;DHT22;32412;51.478;5.694;2023-08-31T14:08:46;15.40;99.90
46676;DHT22;32412;51.478;5.694;2023-08-31T14:11:13;15.60;99.90
46676;DHT22;32412;51.478;5.694;2023-08-31T14:13:39;16.00;99.90
46676;DHT22;32412;51.478;5.694;2023-08-31T14:16:06;16.30;99.90
46676;DHT22;32412;51.478;5.694;2023-08-31T14:18:32;16.80;99.90
46676;DHT22;32412;51.478;5.694;2023-08-31T14:20:58;17.10;99.90
46676;DHT22;32412;51.478;5.694;2023-08-31T14:23:25;17.40;99.90
46676;DHT22;32412;51.478;5.694;2023-08-31T14:25:50;17.50;99.90
46676;DHT22;32412;51.478;5.694;2023-08-31T14:28:16;17.80;99.90
46676;DHT22;32412;51.478;5.694;2023-08-31T14:30:42;18.10;99.90
46676;DHT22;32412;51.478;5.694;2023-08-31T14:33:07;18.40;99.90
46676;DHT22;32412;51.478;5.694;2023-08-31T14:35:37;18.70;99.90
46676;DHT22;32412;51.478;5.694;2023-08-31T14:38:03;18.70;99.90
46676;DHT22;32412;51.478;5.694;2023-08-31T14:40:29;18.90;99.90
46676;DHT22;32412;51.478;5.694;2023-08-31T14:42:55;18.90;99.90
46676;DHT22;32412;51.478;5.694;2023-08-31T14:45:20;18.80;99.90
46676;DHT22;32412;51.478;5.694;2023-08-31T14:47:46;18.80;99.90
46676;DHT22;32412;51.478;5.694;2023-08-31T14:50:11;18.60;99.90
46676;DHT22;32412;51.478;5.694;2023-08-31T14:52:37;18.50;99.90
46676;DHT22;32412;51.478;5.694;2023-08-31T14:55:03;18.50;99.90
46676;DHT22;32412;51.478;5.694;2023-08-31T14:57:30;18.50;99.90
46676;DHT22;32412;51.478;5.694;2023-08-31T14:59:55;18.50;99.90
46676;DHT22;32412;51.478;5.694;2023-08-31T15:02:24;18.50;99.90
46676;DHT22;32412;51.478;5.694;2023-08-31T15:04:50;18.50;99.90
46676;DHT22;32412;51.478;5.694;2023-08-31T15:07:16;18.40;99.90
46676;DHT22;32412;51.478;5.694;2023-08-31T15:09:42;18.30;99.90
46676;DHT22;32412;51.478;5.694;2023-08-31T15:12:08;18.30;99.90
46676;DHT22;32412;51.478;5.694;2023-08-31T15:14:34;18.30;99.90
46676;DHT22;32412;51.478;5.694;2023-08-31T15:16:59;18.30;99.90
46676;DHT22;32412;51.478;5.694;2023-08-31T15:19:25;18.30;99.90
46676;DHT22;32412;51.478;5.694;2023-08-31T15:21:51;18.40;99.90
46676;DHT22;32412;51.478;5.694;2023-08-31T15:24:16;18.40;99.90
46676;DHT22;32412;51.478;5.694;2023-08-31T15:26:42;18.40;99.90
46676;DHT22;32412;51.478;5.694;2023-08-31T15:29:09;18.50;99.90
46676;DHT22;32412;51.478;5.694;2023-08-31T15:31:35;18.50;99.90
46676;DHT22;32412;51.478;5.694;2023-08-31T15:34:01;18.50;99.90
46676;DHT22;32412;51.478;5.694;2023-08-31T15:36:26;18.50;99.90